createdAt,value
2024-02-19T00:02:20.447Z,98613.78
2024-02-19T00:04:35.577Z,98614.69
2024-02-19T00:07:04.583Z,98610.53
2024-02-19T00:09:27.562Z,98615.38
2024-02-19T00:11:35.553Z,98610.28
2024-02-19T00:13:57.440Z,98601.63
2024-02-19T00:16:12.562Z,98611.09
2024-02-19T00:18:34.575Z,98594.16
2024-02-19T00:20:43.696Z,98600.66
2024-02-19T00:23:05.529Z,98606.16
2024-02-19T00:25:21.458Z,98589.09
2024-02-19T00:27:50.476Z,98601.25
2024-02-19T00:30:13.570Z,98586.84
2024-02-19T00:32:37.595Z,98581.22
2024-02-19T00:34:46.073Z,98578.53
2024-02-19T00:37:08.430Z,98578.13
2024-02-19T00:39:16.962Z,98567.84
2024-02-19T00:41:38.535Z,98567.81
2024-02-19T00:43:53.502Z,98559.53
2024-02-19T00:46:08.611Z,98550.63
2024-02-19T00:48:23.569Z,98546.91
2024-02-19T00:50:38.556Z,98551.34
2024-02-19T00:52:53.384Z,98548.25
2024-02-19T00:55:15.588Z,98543.63
2024-02-19T00:57:23.783Z,98543.59
2024-02-19T00:59:45.375Z,98537.81
2024-02-19T01:02:00.531Z,98531.63
2024-02-19T01:04:22.616Z,98520.03
2024-02-19T01:06:37.437Z,98522.22
2024-02-19T01:08:52.625Z,98510.97
2024-02-19T01:11:07.562Z,98509.97
2024-02-19T01:13:22.569Z,98505.91
2024-02-19T01:15:37.584Z,98517.25
2024-02-19T01:17:59.526Z,98507.28
2024-02-19T01:20:08.864Z,98507.88
2024-02-19T01:22:30.448Z,98507.81
2024-02-19T01:24:45.521Z,98494.78
2024-02-19T01:27:07.454Z,98479.59
2024-02-19T01:29:36.547Z,98478.41
2024-02-19T01:31:58.542Z,98477.72
2024-02-19T01:34:09.749Z,98476.72
2024-02-19T01:36:32.365Z,98480.84
2024-02-19T01:38:49.490Z,98475.19
2024-02-19T01:41:18.450Z,98467.63
2024-02-19T01:43:40.492Z,98467.00
2024-02-19T01:45:50.733Z,98467.75
2024-02-19T01:48:13.635Z,98455.31
2024-02-19T01:50:22.529Z,98449.19
2024-02-19T01:52:44.426Z,98447.97
2024-02-19T01:55:00.543Z,98442.56
2024-02-19T01:57:30.414Z,98438.91
2024-02-19T01:59:52.381Z,98430.13
2024-02-19T02:02:01.620Z,98428.53
2024-02-19T02:04:25.520Z,98417.41
2024-02-19T02:06:34.563Z,98411.19
2024-02-19T02:08:57.461Z,98408.41
2024-02-19T02:11:05.604Z,98406.25
2024-02-19T02:13:28.465Z,98408.66
2024-02-19T02:15:43.510Z,98405.22
2024-02-19T02:18:12.563Z,98385.13
2024-02-19T02:20:34.428Z,98386.97
2024-02-19T02:22:44.504Z,98383.53
2024-02-19T02:25:09.445Z,98383.13
2024-02-19T02:27:24.735Z,98373.66
2024-02-19T02:29:40.373Z,98376.34
2024-02-19T02:31:55.486Z,98369.88
2024-02-19T02:34:11.486Z,98366.44
2024-02-19T02:36:33.600Z,98362.81
2024-02-19T02:38:42.080Z,98358.34
2024-02-19T02:41:04.525Z,98359.94
2024-02-19T02:43:19.521Z,98353.31
2024-02-19T02:45:41.494Z,98348.59
2024-02-19T02:47:49.832Z,98342.88
2024-02-19T02:50:12.399Z,98337.81
2024-02-19T02:52:20.805Z,98334.94
2024-02-19T02:54:42.573Z,98328.75
2024-02-19T02:57:04.459Z,98332.75
2024-02-19T02:59:26.463Z,98321.88
2024-02-19T03:01:37.154Z,98326.44
2024-02-19T03:03:59.440Z,98336.63
2024-02-19T03:06:14.511Z,98314.91
2024-02-19T03:08:43.484Z,98307.31
2024-02-19T03:11:07.464Z,98308.56
2024-02-19T03:13:15.518Z,98303.13
2024-02-19T03:15:37.435Z,98306.16
2024-02-19T03:17:46.641Z,98303.88
2024-02-19T03:20:08.423Z,98299.63
2024-02-19T03:22:23.452Z,98296.88
2024-02-19T03:24:52.452Z,98289.81
2024-02-19T03:27:14.476Z,98291.25
2024-02-19T03:29:22.502Z,98299.25
2024-02-19T03:31:44.404Z,98296.59
2024-02-19T03:34:00.566Z,98292.53
2024-02-19T03:36:29.403Z,98281.72
2024-02-19T03:38:58.421Z,98283.03
2024-02-19T03:41:20.379Z,98281.03
2024-02-19T03:43:28.504Z,98274.84
2024-02-19T03:45:50.504Z,98271.25
2024-02-19T03:47:58.611Z,98270.56
2024-02-19T03:50:20.508Z,98260.22
2024-02-19T03:52:36.383Z,98264.13
2024-02-19T03:54:51.772Z,98251.16
2024-02-19T03:57:20.487Z,98254.47
2024-02-19T03:59:49.373Z,98254.44
2024-02-19T04:02:18.448Z,98251.00
2024-02-19T04:04:47.475Z,98246.44
2024-02-19T04:07:16.582Z,98245.53
2024-02-19T04:09:38.421Z,98244.66
2024-02-19T04:11:46.766Z,98243.91
2024-02-19T04:14:08.394Z,98243.25
2024-02-19T04:16:16.470Z,98239.31
2024-02-19T04:18:38.729Z,98225.19
2024-02-19T04:20:47.430Z,98227.16
2024-02-19T04:23:09.448Z,98228.41
2024-02-19T04:25:17.502Z,98218.13
2024-02-19T04:27:39.473Z,98225.34
2024-02-19T04:29:54.414Z,98217.88
2024-02-19T04:32:16.483Z,98218.69
2024-02-19T04:34:25.575Z,98211.06
2024-02-19T04:36:48.468Z,98215.47
2024-02-19T04:38:56.541Z,98205.91
2024-02-19T04:41:18.374Z,98200.72
2024-02-19T04:43:33.425Z,98202.19
2024-02-19T04:46:02.420Z,98194.81
2024-02-19T04:48:31.334Z,98194.94
2024-02-19T04:51:00.406Z,98194.50
2024-02-19T04:53:26.374Z,98186.38
2024-02-19T04:55:41.352Z,98186.13
2024-02-19T04:58:10.343Z,98176.59
2024-02-19T05:00:33.455Z,98177.19
2024-02-19T05:02:42.507Z,98174.91
2024-02-19T05:05:04.448Z,98172.66
2024-02-19T05:07:12.609Z,98181.50
2024-02-19T05:09:35.389Z,98177.28
2024-02-19T05:11:44.480Z,98176.97
2024-02-19T05:14:06.424Z,98173.31
2024-02-19T05:16:22.404Z,98174.25
2024-02-19T05:18:44.493Z,98170.38
2024-02-19T05:21:00.341Z,98176.53
2024-02-19T05:23:22.351Z,98163.16
2024-02-19T05:25:37.411Z,98171.88
2024-02-19T05:28:00.369Z,98166.13
2024-02-19T05:30:15.425Z,98166.22
2024-02-19T05:32:37.425Z,98174.84
2024-02-19T05:34:53.635Z,98164.03
2024-02-19T05:37:22.371Z,98168.75
2024-02-19T05:39:51.455Z,98157.81
2024-02-19T05:42:20.336Z,98162.78
2024-02-19T05:44:43.374Z,98152.06
2024-02-19T05:46:58.380Z,98155.72
2024-02-19T05:49:27.534Z,98159.28
2024-02-19T05:51:56.462Z,98160.78
2024-02-19T05:54:18.404Z,98168.97
2024-02-19T05:56:34.373Z,98166.59
2024-02-19T05:59:03.403Z,98164.50
2024-02-19T06:01:25.576Z,98170.28
2024-02-19T06:03:34.487Z,98164.31
2024-02-19T06:05:56.475Z,98163.00
2024-02-19T06:08:04.493Z,98167.06
2024-02-19T06:10:26.408Z,98166.00
2024-02-19T06:12:42.449Z,98164.50
2024-02-19T06:15:11.413Z,98160.88
2024-02-19T06:17:33.567Z,98165.00
2024-02-19T06:19:43.042Z,98155.53
2024-02-19T06:22:05.449Z,98161.59
2024-02-19T06:24:20.420Z,98148.22
2024-02-19T06:26:35.390Z,98160.19
2024-02-19T06:28:50.894Z,98162.66
2024-02-19T06:31:06.620Z,98157.72
2024-02-19T06:33:23.622Z,98157.78
2024-02-19T06:35:38.358Z,98165.38
2024-02-19T06:38:00.338Z,98156.84
2024-02-19T06:40:09.464Z,98151.91
2024-02-19T06:42:31.402Z,98152.75
2024-02-19T06:44:39.824Z,98151.94
2024-02-19T06:47:01.403Z,98151.81
2024-02-19T06:49:30.525Z,98148.84
2024-02-19T06:51:52.407Z,98149.94
2024-02-19T06:54:01.417Z,98142.91
2024-02-19T06:56:23.398Z,98141.94
2024-02-19T06:58:31.645Z,98131.16
2024-02-19T07:00:53.412Z,98130.69
2024-02-19T07:03:08.389Z,98134.75
2024-02-19T07:05:37.568Z,98139.69
2024-02-19T07:07:59.401Z,98135.75
2024-02-19T07:10:07.583Z,98133.47
2024-02-19T07:12:29.481Z,98128.22
2024-02-19T07:14:38.488Z,98123.25
2024-02-19T07:17:00.300Z,98119.56
2024-02-19T07:19:15.489Z,98126.09
2024-02-19T07:21:44.370Z,98114.06
2024-02-19T07:24:13.291Z,98121.13
2024-02-19T07:26:42.345Z,98116.03
2024-02-19T07:29:04.362Z,98122.22
2024-02-19T07:31:12.532Z,98103.88
2024-02-19T07:33:37.739Z,98114.00
2024-02-19T07:35:52.461Z,98111.34
2024-02-19T07:38:07.353Z,98107.56
2024-02-19T07:40:31.592Z,98108.91
2024-02-19T07:42:41.788Z,98107.00
2024-02-19T07:45:03.359Z,98105.78
2024-02-19T07:47:18.467Z,98110.41
2024-02-19T07:49:33.636Z,98103.69
2024-02-19T07:51:48.449Z,98094.16
2024-02-19T07:54:03.465Z,98096.59
2024-02-19T07:56:18.295Z,98087.88
2024-02-19T07:58:40.715Z,98094.69
2024-02-19T08:00:48.905Z,98083.75
2024-02-19T08:03:10.349Z,98079.72
2024-02-19T08:05:32.616Z,98078.97
2024-02-19T08:07:41.669Z,98086.25
2024-02-19T08:10:03.391Z,98088.63
2024-02-19T08:12:12.568Z,98079.06
2024-02-19T08:14:34.372Z,98079.94
2024-02-19T08:16:50.402Z,98075.47
2024-02-19T08:19:19.473Z,98072.44
2024-02-19T08:21:41.649Z,98074.16
2024-02-19T08:23:57.418Z,98083.03
2024-02-19T08:26:19.391Z,98061.31
2024-02-19T08:28:27.727Z,98061.81
2024-02-19T08:30:49.440Z,98070.84
2024-02-19T08:32:58.619Z,98069.41
2024-02-19T08:35:20.422Z,98068.25
2024-02-19T08:37:29.479Z,98073.78
2024-02-19T08:39:51.381Z,98063.72
2024-02-19T08:42:06.367Z,98068.72
2024-02-19T08:44:35.317Z,98059.09
2024-02-19T08:46:57.363Z,98058.50
2024-02-19T08:49:12.643Z,98061.38
2024-02-19T08:51:49.469Z,98051.50
2024-02-19T08:54:12.516Z,98044.38
2024-02-19T08:56:28.439Z,98057.31
2024-02-19T08:58:57.330Z,98051.38
2024-02-19T09:01:26.534Z,98059.00
2024-02-19T09:03:55.531Z,98065.31
2024-02-19T09:06:17.561Z,98056.94
2024-02-19T09:08:47.417Z,98060.41
2024-02-19T09:11:18.399Z,98040.38
2024-02-19T09:13:44.822Z,98045.63
2024-02-19T09:15:54.713Z,98037.63
2024-02-19T09:18:16.497Z,98039.63
2024-02-19T09:20:25.585Z,98031.88
2024-02-19T09:22:50.461Z,98031.66
2024-02-19T09:24:58.595Z,98032.91
2024-02-19T09:27:22.364Z,98022.19
2024-02-19T09:29:39.404Z,98025.06
2024-02-19T09:32:08.392Z,98032.53
2024-02-19T09:34:30.418Z,98036.59
2024-02-19T09:36:38.513Z,98041.31
2024-02-19T09:39:03.424Z,98033.00
2024-02-19T09:41:12.463Z,98031.41
2024-02-19T09:43:34.421Z,98027.69
2024-02-19T09:45:49.476Z,98037.16
2024-02-19T09:48:08.477Z,98021.69
2024-02-19T09:50:24.514Z,98029.09
2024-02-19T09:52:39.338Z,98018.19
2024-02-19T09:55:01.461Z,98031.25
2024-02-19T09:57:19.360Z,98031.25
2024-02-19T09:59:50.445Z,98028.41
2024-02-19T10:02:19.310Z,98020.88
2024-02-19T10:04:43.442Z,98007.63
2024-02-19T10:06:53.378Z,98014.63
2024-02-19T10:09:16.397Z,98009.53
2024-02-19T10:11:24.504Z,97999.03
2024-02-19T10:13:50.339Z,98011.66
2024-02-19T10:15:58.558Z,97997.41
2024-02-19T10:18:25.547Z,97997.56
2024-02-19T10:20:41.731Z,97994.09
2024-02-19T10:23:10.414Z,98001.41
2024-02-19T10:25:32.499Z,98005.59
2024-02-19T10:27:46.158Z,97998.34
2024-02-19T10:30:08.388Z,98000.59
2024-02-19T10:32:16.697Z,98007.72
2024-02-19T10:34:38.355Z,98009.81
2024-02-19T10:36:47.582Z,98007.63
2024-02-19T10:39:11.576Z,98009.09
2024-02-19T10:41:25.157Z,98001.50
2024-02-19T10:43:47.373Z,98010.91
2024-02-19T10:46:03.561Z,98001.97
2024-02-19T10:48:18.878Z,97997.94
2024-02-19T10:50:45.473Z,97994.81
2024-02-19T10:52:53.826Z,97990.44
2024-02-19T10:55:19.957Z,97992.13
2024-02-19T10:57:33.862Z,97982.38
2024-02-19T10:59:55.306Z,97982.41
2024-02-19T11:02:12.881Z,97975.19
2024-02-19T11:04:35.374Z,97992.22
2024-02-19T11:06:47.827Z,97987.69
2024-02-19T11:09:10.576Z,97977.72
2024-02-19T11:11:28.550Z,97973.91
2024-02-19T11:13:46.863Z,97976.53
2024-02-19T11:16:02.376Z,97970.31
2024-02-19T11:18:18.556Z,97977.78
2024-02-19T11:20:33.371Z,97975.63
2024-02-19T11:22:48.432Z,97984.59
2024-02-19T11:25:05.455Z,97975.13
2024-02-19T11:27:20.434Z,97976.72
2024-02-19T11:29:47.668Z,97980.50
2024-02-19T11:32:16.311Z,97978.94
2024-02-19T11:34:46.405Z,97973.09
2024-02-19T11:37:19.395Z,97972.00
2024-02-19T11:39:27.447Z,97972.47
2024-02-19T11:41:52.446Z,97974.72
2024-02-19T11:44:01.422Z,97975.22
2024-02-19T11:46:23.439Z,97969.56
2024-02-19T11:48:32.502Z,97972.13
2024-02-19T11:50:54.340Z,97964.56
2024-02-19T11:53:11.487Z,97966.03
2024-02-19T11:55:41.433Z,97962.00
2024-02-19T11:58:13.511Z,97963.75
2024-02-19T12:00:44.498Z,97950.81
2024-02-19T12:03:07.350Z,97953.97
2024-02-19T12:05:17.915Z,97950.47
2024-02-19T12:07:41.428Z,97952.69
2024-02-19T12:09:51.629Z,97943.69
2024-02-19T12:12:13.381Z,97940.50
2024-02-19T12:14:22.699Z,97939.06
2024-02-19T12:16:44.280Z,97941.78
2024-02-19T12:18:52.538Z,97936.56
2024-02-19T12:21:16.334Z,97941.19
2024-02-19T12:23:32.272Z,97940.59
2024-02-19T12:26:01.361Z,97936.41
2024-02-19T12:28:30.460Z,97943.53
2024-02-19T12:30:45.921Z,97938.00
2024-02-19T12:33:08.514Z,97937.09
2024-02-19T12:35:40.682Z,97942.03
2024-02-19T12:38:03.433Z,97937.19
2024-02-19T12:40:14.746Z,97935.75
2024-02-19T12:42:36.427Z,97933.94
2024-02-19T12:44:45.927Z,97934.78
2024-02-19T12:47:07.334Z,97940.09
2024-02-19T12:49:15.623Z,97944.94
2024-02-19T12:51:45.372Z,97947.66
2024-02-19T12:53:53.444Z,97950.56
2024-02-19T12:56:15.315Z,97935.88
2024-02-19T12:58:30.436Z,97949.78
2024-02-19T13:01:00.004Z,97950.00
2024-02-19T13:03:25.482Z,97942.84
2024-02-19T13:05:34.461Z,97954.13
2024-02-19T13:07:56.501Z,97945.25
2024-02-19T13:10:12.482Z,97947.59
2024-02-19T13:12:41.340Z,97951.34
2024-02-19T13:15:04.385Z,97956.53
2024-02-19T13:17:16.923Z,97948.22
2024-02-19T13:19:43.414Z,97961.06
2024-02-19T13:21:58.461Z,97947.94
2024-02-19T13:24:27.352Z,97960.94
2024-02-19T13:26:51.375Z,97961.78
2024-02-19T13:29:03.786Z,97951.53
2024-02-19T13:31:25.493Z,97950.59
2024-02-19T13:33:41.364Z,97956.56
2024-02-19T13:36:10.356Z,97967.72
2024-02-19T13:38:33.592Z,97969.38
2024-02-19T13:40:43.154Z,97965.50
2024-02-19T13:43:05.448Z,97975.63
2024-02-19T13:45:22.370Z,97979.53
2024-02-19T13:47:55.418Z,97966.16
2024-02-19T13:50:24.491Z,97971.81
2024-02-19T13:52:53.347Z,97969.47
2024-02-19T13:55:15.511Z,97963.81
2024-02-19T13:57:30.427Z,97968.59
2024-02-19T13:59:46.326Z,97965.78
2024-02-19T14:02:08.475Z,97976.91
2024-02-19T14:04:23.459Z,97989.09
2024-02-19T14:06:45.437Z,97984.94
2024-02-19T14:08:54.621Z,97987.13
2024-02-19T14:11:16.376Z,97998.59
2024-02-19T14:13:24.915Z,98004.22
2024-02-19T14:15:47.386Z,98005.41
2024-02-19T14:18:02.440Z,98008.25
2024-02-19T14:20:17.444Z,98000.19
2024-02-19T14:22:32.468Z,98015.19
2024-02-19T14:24:47.725Z,98011.34
2024-02-19T14:27:04.253Z,98020.69
2024-02-19T14:29:19.497Z,98012.53
2024-02-19T14:31:34.372Z,98014.75
2024-02-19T14:33:57.430Z,98013.13
2024-02-19T14:36:06.253Z,98021.91
2024-02-19T14:38:28.372Z,98029.50
2024-02-19T14:40:38.166Z,98036.16
2024-02-19T14:43:04.325Z,98024.00
2024-02-19T14:45:13.945Z,98032.78
2024-02-19T14:47:36.333Z,98035.00
2024-02-19T14:49:51.453Z,98031.13
2024-02-19T14:52:06.922Z,98038.72
2024-02-19T14:54:22.319Z,98032.00
2024-02-19T14:56:41.871Z,98031.75
2024-02-19T14:58:57.489Z,98029.78
2024-02-19T15:01:12.698Z,98028.03
2024-02-19T15:03:27.322Z,98029.81
2024-02-19T15:05:49.331Z,98047.31
2024-02-19T15:07:58.051Z,98041.41
2024-02-19T15:10:23.400Z,98047.94
2024-02-19T15:12:32.052Z,98052.41
2024-02-19T15:14:54.411Z,98050.91
2024-02-19T15:17:03.732Z,98047.78
2024-02-19T15:19:43.612Z,98041.41
2024-02-19T15:22:01.623Z,98047.47
2024-02-19T15:24:18.657Z,98044.66
2024-02-19T15:26:38.402Z,98050.88
2024-02-19T15:28:57.422Z,98047.63
2024-02-19T15:31:20.327Z,98059.50
2024-02-19T15:33:38.798Z,98059.81
2024-02-19T15:36:00.313Z,98052.38
2024-02-19T15:38:15.425Z,98052.22
2024-02-19T15:40:45.752Z,98055.03
2024-02-19T15:43:16.374Z,98069.19
2024-02-19T15:45:27.403Z,98063.53
2024-02-19T15:47:52.708Z,98057.31
2024-02-19T15:50:07.983Z,98073.06
2024-02-19T15:52:33.679Z,98070.97
2024-02-19T15:54:43.215Z,98074.69
2024-02-19T15:57:05.308Z,98076.19
2024-02-19T15:59:20.337Z,98089.22
2024-02-19T16:01:43.534Z,98085.22
2024-02-19T16:03:53.767Z,98089.53
2024-02-19T16:06:18.516Z,98078.84
2024-02-19T16:08:40.072Z,98088.78
2024-02-19T16:11:07.245Z,98097.09
2024-02-19T16:13:22.367Z,98105.88
2024-02-19T16:15:46.326Z,98111.06
2024-02-19T16:17:54.878Z,98113.88
2024-02-19T16:20:24.312Z,98115.19
2024-02-19T16:22:54.550Z,98123.09
2024-02-19T16:25:23.302Z,98126.31
2024-02-19T16:27:38.320Z,98133.75
2024-02-19T16:29:53.373Z,98132.28
2024-02-19T16:32:09.421Z,98136.13
2024-02-19T16:34:31.396Z,98147.06
2024-02-19T16:36:47.544Z,98136.50
2024-02-19T16:39:16.412Z,98148.91
2024-02-19T16:41:38.261Z,98150.06
2024-02-19T16:43:46.456Z,98167.34
2024-02-19T16:46:09.321Z,98167.06
2024-02-19T16:48:18.047Z,98167.94
2024-02-19T16:50:40.446Z,98171.72
2024-02-19T16:52:49.349Z,98174.66
2024-02-19T16:55:14.438Z,98191.00
2024-02-19T16:57:24.491Z,98188.03
2024-02-19T16:59:53.425Z,98180.72
2024-02-19T17:02:22.342Z,98182.47
2024-02-19T17:04:46.413Z,98171.91
2024-02-19T17:07:02.203Z,98176.41
2024-02-19T17:09:18.240Z,98177.38
2024-02-19T17:11:40.405Z,98182.47
2024-02-19T17:13:48.652Z,98178.47
2024-02-19T17:16:11.371Z,98183.13
2024-02-19T17:18:40.548Z,98187.16
2024-02-19T17:21:02.366Z,98196.72
2024-02-19T17:23:25.241Z,98195.56
2024-02-19T17:25:55.507Z,98186.78
2024-02-19T17:28:17.311Z,98187.09
2024-02-19T17:30:33.246Z,98194.56
2024-02-19T17:33:02.523Z,98192.50
2024-02-19T17:35:24.354Z,98199.09
2024-02-19T17:37:32.586Z,98193.56
2024-02-19T17:39:56.614Z,98201.00
2024-02-19T17:42:12.316Z,98202.88
2024-02-19T17:44:41.270Z,98207.53
2024-02-19T17:47:03.535Z,98216.69
2024-02-19T17:49:14.604Z,98209.91
2024-02-19T17:51:36.384Z,98209.91
2024-02-19T17:53:44.347Z,98211.06
2024-02-19T17:56:06.388Z,98220.53
2024-02-19T17:58:14.677Z,98216.72
2024-02-19T18:00:36.310Z,98225.16
2024-02-19T18:02:52.278Z,98219.56
2024-02-19T18:05:14.380Z,98218.69
2024-02-19T18:07:25.989Z,98216.50
2024-02-19T18:09:48.394Z,98216.63
2024-02-19T18:12:04.359Z,98215.34
2024-02-19T18:14:35.340Z,98227.72
2024-02-19T18:16:57.323Z,98218.16
2024-02-19T18:19:05.425Z,98213.31
2024-02-19T18:21:28.331Z,98210.59
2024-02-19T18:23:44.334Z,98219.72
2024-02-19T18:26:13.330Z,98217.38
2024-02-19T18:28:43.213Z,98226.59
2024-02-19T18:31:16.360Z,98219.50
2024-02-19T18:33:46.351Z,98224.59
2024-02-19T18:36:15.320Z,98224.84
2024-02-19T18:38:37.313Z,98229.34
2024-02-19T18:40:46.288Z,98220.66
2024-02-19T18:43:08.299Z,98223.06
2024-02-19T18:45:17.320Z,98223.16
2024-02-19T18:47:39.297Z,98217.84
2024-02-19T18:49:54.379Z,98229.69
2024-02-19T18:52:16.259Z,98218.59
2024-02-19T18:54:26.929Z,98225.78
2024-02-19T18:56:50.301Z,98222.56
2024-02-19T18:58:58.389Z,98230.75
2024-02-19T19:01:20.329Z,98229.69
2024-02-19T19:03:36.381Z,98232.13
2024-02-19T19:06:10.276Z,98232.78
2024-02-19T19:08:34.455Z,98231.72
2024-02-19T19:10:43.692Z,98223.16
2024-02-19T19:13:05.335Z,98238.06
2024-02-19T19:15:21.307Z,98238.16
2024-02-19T19:17:43.402Z,98227.72
2024-02-19T19:19:59.472Z,98224.09
2024-02-19T19:22:28.417Z,98236.78
2024-02-19T19:24:57.320Z,98234.56
2024-02-19T19:27:27.244Z,98241.06
2024-02-19T19:29:56.428Z,98234.75
2024-02-19T19:32:23.325Z,98236.44
2024-02-19T19:34:31.458Z,98240.25
2024-02-19T19:36:54.336Z,98243.09
2024-02-19T19:39:03.868Z,98239.03
2024-02-19T19:41:27.328Z,98236.28
2024-02-19T19:43:39.504Z,98239.91
2024-02-19T19:46:01.278Z,98245.56
2024-02-19T19:48:17.439Z,98242.72
2024-02-19T19:50:39.401Z,98237.56
2024-02-19T19:52:48.499Z,98240.56
2024-02-19T19:55:11.338Z,98242.88
2024-02-19T19:57:30.609Z,98256.53
2024-02-19T20:00:00.327Z,98252.31
2024-02-19T20:02:22.351Z,98249.09
2024-02-19T20:04:34.685Z,98252.69
2024-02-19T20:06:56.531Z,98252.59
2024-02-19T20:09:12.557Z,98258.00
2024-02-19T20:11:41.418Z,98259.06
2024-02-19T20:14:03.315Z,98264.41
2024-02-19T20:16:12.507Z,98263.19
2024-02-19T20:18:35.334Z,98272.13
2024-02-19T20:20:44.815Z,98280.84
2024-02-19T20:23:06.234Z,98271.38
2024-02-19T20:25:18.851Z,98270.00
2024-02-19T20:27:41.299Z,98274.91
2024-02-19T20:29:49.339Z,98268.63
2024-02-19T20:32:14.423Z,98273.63
2024-02-19T20:34:30.737Z,98279.06
2024-02-19T20:36:59.271Z,98267.38
2024-02-19T20:39:22.746Z,98267.75
2024-02-19T20:41:37.902Z,98263.03
2024-02-19T20:43:53.291Z,98267.53
2024-02-19T20:46:15.289Z,98271.47
2024-02-19T20:48:24.526Z,98269.78
2024-02-19T20:50:46.225Z,98267.03
2024-02-19T20:53:04.358Z,98265.38
2024-02-19T20:55:19.348Z,98275.72
2024-02-19T20:57:34.260Z,98265.94
2024-02-19T20:59:56.298Z,98259.41
2024-02-19T21:02:20.368Z,98266.06
2024-02-19T21:04:35.381Z,98266.69
2024-02-19T21:07:04.560Z,98270.84
2024-02-19T21:09:28.418Z,98268.09
2024-02-19T21:11:36.457Z,98273.38
2024-02-19T21:13:58.344Z,98266.88
2024-02-19T21:16:08.590Z,98273.06
2024-02-19T21:18:34.751Z,98271.81
2024-02-19T21:21:00.224Z,98275.28
2024-02-19T21:23:29.362Z,98268.28
2024-02-19T21:25:51.300Z,98277.66
2024-02-19T21:27:59.888Z,98285.16
2024-02-19T21:30:22.183Z,98283.63
2024-02-19T21:32:38.286Z,98277.84
2024-02-19T21:35:08.539Z,98266.25
2024-02-19T21:37:31.500Z,98263.56
2024-02-19T21:39:40.800Z,98263.00
2024-02-19T21:42:02.306Z,98261.28
2024-02-19T21:44:12.360Z,98267.34
2024-02-19T21:46:34.343Z,98261.22
2024-02-19T21:48:43.771Z,98263.50
2024-02-19T21:51:06.391Z,98257.34
2024-02-19T21:53:14.323Z,98248.81
2024-02-19T21:55:38.342Z,98252.06
2024-02-19T21:57:54.243Z,98256.53
2024-02-19T22:00:36.226Z,98256.91
2024-02-19T22:02:58.293Z,98259.41
2024-02-19T22:05:06.664Z,98261.00
2024-02-19T22:07:28.449Z,98265.41
2024-02-19T22:09:44.502Z,98260.59
2024-02-19T22:12:06.321Z,98263.59
2024-02-19T22:14:22.191Z,98269.53
2024-02-19T22:16:51.172Z,98272.78
2024-02-19T22:19:13.496Z,98257.63
2024-02-19T22:21:29.190Z,98263.81
2024-02-19T22:23:58.459Z,98262.97
2024-02-19T22:26:27.188Z,98261.56
2024-02-19T22:28:56.230Z,98257.06
2024-02-19T22:31:18.265Z,98268.94
2024-02-19T22:33:27.047Z,98265.84
2024-02-19T22:35:49.216Z,98271.28
2024-02-19T22:37:57.385Z,98257.84
2024-02-19T22:40:20.293Z,98267.44
2024-02-19T22:42:35.195Z,98264.25
2024-02-19T22:45:04.266Z,98256.88
2024-02-19T22:47:26.312Z,98267.03
2024-02-19T22:49:35.101Z,98268.31
2024-02-19T22:51:57.285Z,98264.44
2024-02-19T22:54:06.447Z,98262.34
2024-02-19T22:56:28.428Z,98264.34
2024-02-19T22:58:44.337Z,98268.47
2024-02-19T23:01:13.544Z,98262.84
2024-02-19T23:03:42.226Z,98269.38
2024-02-19T23:06:04.643Z,98273.09
2024-02-19T23:08:13.354Z,98272.91
2024-02-19T23:10:42.325Z,98277.94
2024-02-19T23:13:04.287Z,98280.38
2024-02-19T23:15:19.335Z,98281.53
2024-02-19T23:17:34.435Z,98277.31
2024-02-19T23:19:49.488Z,98274.53
2024-02-19T23:22:04.237Z,98278.47
2024-02-19T23:24:19.343Z,98282.00
2024-02-19T23:26:34.166Z,98282.44
2024-02-19T23:28:56.261Z,98289.69
2024-02-19T23:31:04.704Z,98299.94
2024-02-19T23:33:26.434Z,98299.94
2024-02-19T23:35:34.510Z,98301.63
2024-02-19T23:37:56.183Z,98298.75
2024-02-19T23:40:21.275Z,98300.25
2024-02-19T23:42:43.264Z,98304.94
2024-02-19T23:44:51.590Z,98301.75
2024-02-19T23:47:13.448Z,98312.94
2024-02-19T23:49:21.662Z,98303.13
2024-02-19T23:51:43.241Z,98290.84
2024-02-19T23:53:51.630Z,98294.16
2024-02-19T23:56:13.377Z,98288.84
2024-02-19T23:58:28.314Z,98298.97
